Nearby METAR Reports

 

CYUL - Montreal/Dorval, Quebec, Canada
Distance from station: ENE 6km
Updated: 03/04/2024 11:44 EST
Overcast
Overcast
 Wind from ENE
Wind: ENE 13 km/h
Temperature: 7°C
Wind Chill: 5°C
Dew Point: 6°C
Humidity: 93%
Barometer: 1027.1 hPa
Clouds: Overcast
Visibility: 24 km
Cloud details: Overcast 305 m
2024/03/04 16:44 CYUL 041644Z 07007KT 15SM OVC010 07/06 A3033 RMK ST8 SLP274
CWVQ - Ste Anne De Bell, Quebec, Canada
Distance from station: WSW 10km
Updated: 03/04/2024 11:00 EST

 Wind from E
Wind: E 11 km/h
Temperature: 6°C
Wind Chill: 4°C
Dew Point: 5°C
Humidity: 93%
2024/03/04 16:00 CWVQ 041600Z AUTO 09006KT 06/05 RMK AO1 6015 SLP274 T00630050 50004
 
CWTA - Mc Tavish (aut), Quebec, Canada
Distance from station: ENE 18km
Updated: 03/04/2024 11:00 EST

 Wind from N
Wind: N 4 km/h
Temperature: 6°C
Dew Point: 4°C
Humidity: 87%
2024/03/04 16:00 CWTA 041600Z AUTO 01002KT 06/04 RMK AO1 SOG 05 6013 SLP277 T00570042
CYMX - Montreal/Mirabel, Quebec, Canada
Distance from station: NW 29km
Updated: 03/04/2024 11:00 EST
Overcast
Overcast
 Wind from NE
Wind: NE 13 km/h
Temperature: 3°C
Wind Chill: -1°C
Dew Point: 0°C
Humidity: 81%
Barometer: 1027.4 hPa
Clouds: Overcast
Visibility: 24 km
Cloud details: Overcast 213 m
2024/03/04 16:00 CYMX 041600Z 04007KT 010V080 15SM OVC007 03/00 A3034 RMK ST8 SLP281
 
CYHU - Saint Hubert Arp, Quebec, Canada
Distance from station: ENE 31km
Updated: 03/04/2024 11:00 EST
Overcast
Overcast
 Wind from N
Wind: N 7 km/h
Temperature: 7°C
Wind Chill: 6°C
Dew Point: 6°C
Humidity: 93%
Barometer: 1027.8 hPa
Clouds: Overcast
Visibility: 14 km
Cloud details: Overcast 427 m
2024/03/04 16:00 CYHU 041600Z AUTO 01004KT 360V070 9SM OVC014 07/06 A3035 RMK SLP280
CWIT - St Clothilde (a, Quebec, Canada
Distance from station: SSE 33km
Updated: 03/04/2024 11:00 EST

 Wind from SE
Wind: SE 15 km/h
Temperature: 8°C
Wind Chill: 5°C
Dew Point: 6°C
Humidity: 87%
2024/03/04 16:00 CWIT 041600Z AUTO 13008KT 08/06 RMK AO1 6016 PK WND 15018/1515 SLP269 T00800058 50001
 
CWIZ - L'acadie, Quebec, Canada
Distance from station: ESE 41km
Updated: 03/04/2024 11:00 EST

 Wind from S
Wind: S 19 km/h
Temperature: 9°C
Wind Chill: 6°C
Dew Point: 7°C
Humidity: 87%
2024/03/04 16:00 CWIZ 041600Z AUTO 17010KT 09/07 RMK AO1 T00880071
CWHM - Varennes, Quebec, Canada
Distance from station: NE 45km
Updated: 10/25/2016 10:00 EDT
NOT Current

 Wind from W
Wind: W 19 km/h, Gust: 28 km/h
Temperature: 4°C
Wind Chill: 0°C
Dew Point: -2°C
Humidity: 65%
2016/10/25 14:00 CWHM 251400Z AUTO 28010G15KT 04/M02 RMK AO1 PK WND 28018/1302 T00391017
 
CWEW - L'assomption, Quebec, Canada
Distance from station: NE 50km
Updated: 03/04/2024 11:00 EST

 Wind from NNE
Wind: NNE 6 km/h
Temperature: 4°C
Dew Point: 1°C
Humidity: 81%
2024/03/04 16:00 CWEW 041600Z AUTO 03003KT 04/01 RMK AO1 SOG 01 6009 SLP288 T00390005
CWBZ - St Anicet, Quebec, Canada
Distance from station: SW 52km
Updated: 03/04/2024 11:00 EST

 Wind from NE
Wind: NE 13 km/h
Temperature: 9°C
Wind Chill: 7°C
Dew Point: 6°C
Humidity: 82%
2024/03/04 16:00 CWBZ 041600Z AUTO 05007KT 09/06 RMK AO1 SLP259 T00860055 56014
 
KFSO - Highgate, Vermont, USA
Distance from station: SE 79km
Updated: 03/04/2024 11:55 EST
Overcast
Overcast
 Wind from SSW
Wind: SSW 9 km/h
Temperature: 11°C
Dew Point: 7°C
Humidity: 77%
Barometer: 1027.4 hPa
Clouds: Overcast
Visibility: 16 km
Cloud details: Overcast 1494 m
2024/03/04 16:55 KFSO 041655Z AUTO 20005KT 10SM OVC049 11/07 A3034 RMK AO2 T01070065
CMGB - Granby, Quebec, Canada
Distance from station: E 81km
Updated: 03/04/2024 11:00 EST

 Wind from WSW
Wind: WSW 6 km/h
Temperature: 11°C
Dew Point: 6°C
Humidity: 72%
2024/03/04 16:00 CMGB 041600Z AUTO 25003KT 11/06 RMK AO1 SLP282 T01100059 58013
 
CWJT - St Jovite (autob, Quebec, Canada
Distance from station: NW 88km
Updated: 03/04/2024 11:00 EST

 Wind from SE
Wind: SE 4 km/h
Temperature: 4°C
Dew Point: 3°C
Humidity: 93%
2024/03/04 16:00 CWJT 041600Z AUTO 14002KT 04/03 RMK AO1 SLP276 T00430033 58001
CWFQ - Frelighsburg, Quebec, Canada
Distance from station: ESE 90km
Updated: 03/04/2024 11:00 EST

 Wind from SE
Wind: SE 7 km/h
Temperature: 11°C
Dew Point: 6°C
Humidity: 72%
2024/03/04 16:00 CWFQ 041600Z AUTO 14004KT 11/06 RMK AO1 SLP274 T01060055 58008
 
KPBG - Plattsburgh Afb, New York, USA
Distance from station: SSE 93km
Updated: 03/04/2024 11:53 EST
Few Clouds
Few Clouds
 Wind from ESE
Wind: ESE 13 km/h
Temperature: 8°C
Wind Chill: 6°C
Dew Point: 5°C
Humidity: 82%
Barometer: 1027.1 hPa
Clouds: Few Clouds
Visibility: 16 km
Cloud details: Few Clouds 274 m
2024/03/04 16:53 KPBG 041653Z AUTO 11007KT 10SM FEW009 08/05 A3033 RMK AO2 SLP271 T00830050
KMSS - Massena, New York, USA
Distance from station: SW 100km
Updated: 03/04/2024 11:53 EST
Overcast
Overcast
 Wind from ENE
Wind: ENE 15 km/h
Temperature: 8°C
Wind Chill: 5°C
Dew Point: 6°C
Humidity: 87%
Barometer: 1025.7 hPa
Clouds: Overcast
Visibility: 16 km
Cloud details: Overcast 1097 m
2024/03/04 16:53 KMSS 041653Z AUTO 07008KT 10SM OVC036 08/06 A3029 RMK AO2 SLP261 T00830056
 
CWBS - Lac St Pierre (a, Quebec, Canada
Distance from station: NE 106km
Updated: 03/04/2024 11:00 EST

 Wind from NE
Wind: NE 26 km/h
Temperature: 3°C
Wind Chill: -2°C
Dew Point: -2°C
Humidity: 70%
2024/03/04 16:00 CWBS 041600Z AUTO 05014KT 03/M02 RMK AO1 PK WND 06018/1501 T00261015
KBTV - Burlington, Vermont, USA
Distance from station: SSE 121km
Updated: 03/04/2024 11:54 EST
Mostly cloudy
Mostly cloudy
 Wind from SSW
Wind: SSW 17 km/h
Temperature: 12°C
Dew Point: 6°C
Humidity: 67%
Barometer: 1027.1 hPa
Clouds: Mostly cloudy
Visibility: 16 km
Cloud details: Mostly cloudy 1524 m
Mostly cloudy 2438 m
2024/03/04 16:54 KBTV 041654Z 20009KT 10SM BKN050 BKN080 12/06 A3033 RMK AO2 SLP273 T01170061 $
 
KSLK - Saranac Lake, New York, USA
Distance from station: SSW 121km
Updated: 03/04/2024 11:51 EST
Mostly cloudy
Mostly cloudy
 Wind from SSW
Wind: SSW 30 km/h, Gust: 48 km/h
Temperature: 14°C
Dew Point: 5°C
Humidity: 55%
Barometer: 1024.7 hPa
Clouds: Mostly cloudy
Visibility: 16 km
Cloud details: Mostly cloudy 1128 m
2024/03/04 16:51 KSLK 041651Z AUTO 21016G26KT 10SM BKN037 14/05 A3026 RMK AO2 PK WND 20026/1646 SLP255 T01390050
CWNQ - Nicolet (autob), Quebec, Canada
Distance from station: NE 123km
Updated: 03/04/2024 11:00 EST

 Wind from NE
Wind: NE 13 km/h
Temperature: 3°C
Wind Chill: -1°C
Dew Point: -3°C
Humidity: 65%
2024/03/04 16:00 CWNQ 041600Z AUTO 04007KT 03/M03 RMK AO1 SLP294 T00281029 56014
 
KMWN - Mount Washington, New Hampshire, USA
Distance from station: SE 237km
Updated: 03/04/2024 11:47 EST

 Wind from S
Wind: S 31 km/h
Visibility: 144 km
2024/03/04 16:47 KMWN 041647Z 19017KT 90SM OVC/// BKN180 BKN220 02/M02 RMK TPS LWR OVC055
CYVR - Vancouver Intl A, British Columbia, Canada
Distance from station: NW 3676km
Updated: 03/04/2024 11:00 EST
Mostly cloudy
Mostly cloudy
 Wind from NW
Wind: NW 20 km/h
Temperature: 3°C
Wind Chill: -2°C
Dew Point: 0°C
Humidity: 81%
Barometer: 1010.8 hPa
Clouds: Mostly cloudy
Visibility: 48 km
Cloud details: Few Clouds 610 m
Mostly cloudy 1646 m
Mostly cloudy 5486 m
2024/03/04 16:00 CYVR 041600Z 31011KT 30SM FEW020 BKN054 BKN180 03/M00 A2985 RMK CU1SC6AC1 CU TR AC TR SLP110